Time;durP1;ratioP1;P1;durP2;ratioP2;P2;SDS_P1;SDS_P2;PMS_P1;PMS_P2;Temp;Humidity;BMP_temperature;BMP_pressure;BME280_temperature;BME280_humidity;BME280_pressure;Samples;Min_cycle;Max_cycle;Signal;HPM_P1;HPM_P2
2022/10/17 00:02:20;;;;;;;6.03;4.00;;;;;;;;;;5073158;28;20046;-74
2022/10/17 00:04:45;;;;;;;8.68;4.03;;;;;;;;;;5073296;28;20493;-75
2022/10/17 00:07:10;;;;;;;6.90;4.03;;;;;;;;;;5073230;28;20035;-74
2022/10/17 00:09:36;;;;;;;8.13;3.90;;;;;;;;;;5073194;28;20035;-74
2022/10/17 00:12:01;;;;;;;6.80;3.60;;;;;;;;;;5072738;28;20028;-74
2022/10/17 00:14:27;;;;;;;5.20;3.75;;;;;;;;;;5071633;28;20037;-75
2022/10/17 00:16:52;;;;;;;5.85;4.05;;;;;;;;;;5073115;28;20024;-74
2022/10/17 00:19:17;;;;;;;6.82;3.72;;;;;;;;;;5073653;28;20024;-75
2022/10/17 00:21:42;;;;;;;5.15;3.50;;;;;;;;;;5072824;28;20111;-74
2022/10/17 00:24:08;;;;;;;5.57;3.95;;;;;;;;;;5072985;28;20021;-75
2022/10/17 00:26:33;;;;;;;10.10;3.75;;;;;;;;;;5075664;28;20032;-75
2022/10/17 00:28:58;;;;;;;7.70;3.95;;;;;;;;;;5076863;28;20056;-74
2022/10/17 00:31:24;;;;;;;7.72;3.63;;;;;;;;;;5077001;28;20027;-75
2022/10/17 00:33:50;;;;;;;7.28;3.65;;;;;;;;;;5076970;28;20032;-75
2022/10/17 00:36:22;;;;;;;5.53;3.60;;;;;;;;;;5076682;28;20028;-75
2022/10/17 00:38:52;;;;;;;6.90;3.72;;;;;;;;;;5075408;28;20058;-75
2022/10/17 00:41:20;;;;;;;7.03;3.78;;;;;;;;;;5076560;28;20024;-75
2022/10/17 00:43:58;;;;;;;5.18;3.75;;;;;;;;;;5076693;28;20103;-75
2022/10/17 00:46:27;;;;;;;4.75;3.60;;;;;;;;;;5076539;28;20562;-75
2022/10/17 00:48:54;;;;;;;5.85;3.80;;;;;;;;;;5076795;28;20162;-75
2022/10/17 00:51:28;;;;;;;7.60;3.78;;;;;;;;;;5076241;28;20024;-75
2022/10/17 00:53:54;;;;;;;7.45;3.72;;;;;;;;;;5076292;28;20051;-76
2022/10/17 00:56:20;;;;;;;7.05;3.80;;;;;;;;;;5076530;28;20051;-75
2022/10/17 00:58:46;;;;;;;6.90;3.90;;;;;;;;;;5076574;28;20532;-75
2022/10/17 01:01:11;;;;;;;7.00;3.85;;;;;;;;;;5076232;28;20509;-74
2022/10/17 01:03:36;;;;;;;7.03;3.90;;;;;;;;;;5076253;28;20067;-75
2022/10/17 01:06:02;;;;;;;5.68;3.95;;;;;;;;;;5076411;28;20028;-74
2022/10/17 01:08:27;;;;;;;7.97;3.72;;;;;;;;;;5076368;28;20503;-74
2022/10/17 01:10:58;;;;;;;4.85;3.70;;;;;;;;;;5076041;28;20561;-75
2022/10/17 01:13:39;;;;;;;7.35;3.70;;;;;;;;;;5075887;28;20032;-75
2022/10/17 01:16:12;;;;;;;5.35;3.42;;;;;;;;;;5075987;28;20020;-75
2022/10/17 01:18:43;;;;;;;6.70;3.30;;;;;;;;;;5074790;28;20031;-74
2022/10/17 01:21:31;;;;;;;8.23;3.35;;;;;;;;;;5076123;28;20073;-75
2022/10/17 01:24:12;;;;;;;6.10;3.63;;;;;;;;;;5076087;28;20047;-74
2022/10/17 01:26:52;;;;;;;5.28;3.50;;;;;;;;;;5076154;28;20028;-75
2022/10/17 01:29:39;;;;;;;6.68;3.80;;;;;;;;;;5074549;28;20028;-75
2022/10/17 01:32:22;;;;;;;4.97;3.40;;;;;;;;;;5075471;28;20029;-74
2022/10/17 01:35:03;;;;;;;6.25;3.40;;;;;;;;;;5076561;28;20397;-75
2022/10/17 01:37:41;;;;;;;5.55;3.20;;;;;;;;;;5075037;28;20033;-74
2022/10/17 01:40:13;;;;;;;6.07;3.28;;;;;;;;;;5075596;28;20028;-75
2022/10/17 01:42:57;;;;;;;4.70;3.55;;;;;;;;;;5075593;28;20025;-74
2022/10/17 01:45:27;;;;;;;;;;;;;;;;;;5074598;28;20024;-75
2022/10/17 01:47:54;;;;;;;7.70;3.40;;;;;;;;;;5075638;28;20361;-75
2022/10/17 01:50:38;;;;;;;4.75;3.30;;;;;;;;;;5075133;28;20028;-75
2022/10/17 01:53:11;;;;;;;6.18;3.53;;;;;;;;;;5075654;28;20058;-75
2022/10/17 01:55:40;;;;;;;4.72;3.58;;;;;;;;;;5075517;28;20025;-74
2022/10/17 01:58:10;;;;;;;6.03;3.83;;;;;;;;;;5075434;28;20540;-75
2022/10/17 02:00:37;;;;;;;10.57;3.53;;;;;;;;;;5075396;28;20074;-74
2022/10/17 02:03:06;;;;;;;7.75;3.80;;;;;;;;;;5075007;28;20382;-74
2022/10/17 02:05:36;;;;;;;5.25;3.40;;;;;;;;;;5073983;28;20388;-75
2022/10/17 02:08:01;;;;;;;7.75;3.40;;;;;;;;;;5075563;28;20119;-74
2022/10/17 02:10:38;;;;;;;5.07;3.17;;;;;;;;;;5074956;28;20064;-74
2022/10/17 02:13:35;;;;;;;5.43;3.10;;;;;;;;;;5074828;28;20024;-75
2022/10/17 02:16:28;;;;;;;5.97;3.40;;;;;;;;;;5074871;28;20025;-75
2022/10/17 02:19:08;;;;;;;4.95;3.75;;;;;;;;;;5073542;28;20029;-75
2022/10/17 02:21:50;;;;;;;8.88;4.47;;;;;;;;;;5074886;28;20029;-75
2022/10/17 02:24:33;;;;;;;7.85;4.50;;;;;;;;;;5074810;28;20032;-75
2022/10/17 02:27:13;;;;;;;7.22;4.32;;;;;;;;;;5073398;28;20027;-75
2022/10/17 02:29:53;;;;;;;9.07;4.82;;;;;;;;;;5074846;28;20565;-75
2022/10/17 02:32:25;;;;;;;9.35;4.88;;;;;;;;;;5073134;28;20033;-75
2022/10/17 02:34:55;;;;;;;7.57;4.75;;;;;;;;;;5074481;28;20032;-75
2022/10/17 02:37:26;;;;;;;6.05;3.92;;;;;;;;;;5075220;28;20416;-75
2022/10/17 02:39:54;;;;;;;9.68;4.50;;;;;;;;;;5074487;28;20032;-75
2022/10/17 02:42:21;;;;;;;8.63;4.60;;;;;;;;;;5074236;28;20056;-75
2022/10/17 02:44:48;;;;;;;8.07;4.47;;;;;;;;;;5074662;28;20032;-75
2022/10/17 02:47:16;;;;;;;8.30;5.00;;;;;;;;;;5072962;28;20371;-75
2022/10/17 02:49:48;;;;;;;16.50;9.40;;;;;;;;;;5074145;28;20187;-75
2022/10/17 02:52:25;;;;;;;22.30;12.85;;;;;;;;;;5074477;28;20513;-75
2022/10/17 02:54:58;;;;;;;23.95;12.73;;;;;;;;;;5074198;28;20030;-75
2022/10/17 02:57:46;;;;;;;23.03;12.37;;;;;;;;;;5074417;28;20535;-76
2022/10/17 03:00:14;;;;;;;22.40;13.13;;;;;;;;;;5073727;28;20063;-75
2022/10/17 03:02:42;;;;;;;24.33;13.13;;;;;;;;;;5072597;28;20052;-76
2022/10/17 03:05:10;;;;;;;27.85;15.35;;;;;;;;;;5073873;28;20031;-75
2022/10/17 03:07:35;;;;;;;29.67;16.00;;;;;;;;;;5074034;28;20112;-75
2022/10/17 03:10:00;;;;;;;25.27;14.30;;;;;;;;;;5073796;28;20103;-75
2022/10/17 03:12:25;;;;;;;30.80;15.75;;;;;;;;;;5072285;28;20482;-75
2022/10/17 03:14:50;;;;;;;30.88;17.15;;;;;;;;;;5073891;28;20056;-73
2022/10/17 03:17:16;;;;;;;32.45;17.08;;;;;;;;;;5073920;28;20028;-76
2022/10/17 03:19:41;;;;;;;30.02;17.35;;;;;;;;;;5072351;28;20372;-75
2022/10/17 03:22:06;;;;;;;33.67;17.95;;;;;;;;;;5072282;28;20102;-74
2022/10/17 03:24:32;;;;;;;21.23;12.68;;;;;;;;;;5073461;28;20021;-74
2022/10/17 03:26:57;;;;;;;26.25;14.15;;;;;;;;;;5072266;28;20629;-74
2022/10/17 03:29:22;;;;;;;26.98;13.55;;;;;;;;;;5073648;28;20115;-74
2022/10/17 03:31:48;;;;;;;19.60;11.05;;;;;;;;;;5072046;28;20017;-75
2022/10/17 03:34:15;;;;;;;15.18;8.63;;;;;;;;;;5073787;28;20115;-75
2022/10/17 03:36:40;;;;;;;21.13;11.10;;;;;;;;;;5073322;28;20118;-75
2022/10/17 03:39:06;;;;;;;24.40;11.57;;;;;;;;;;5073295;28;20477;-74
2022/10/17 03:41:31;;;;;;;16.85;9.75;;;;;;;;;;5073193;28;20059;-74
2022/10/17 03:43:56;;;;;;;20.25;12.13;;;;;;;;;;5071991;28;20497;-74
2022/10/17 03:46:21;;;;;;;15.88;8.85;;;;;;;;;;5073548;28;20036;-75
2022/10/17 03:48:47;;;;;;;20.48;10.82;;;;;;;;;;5071970;28;20035;-75
2022/10/17 03:51:12;;;;;;;25.60;11.20;;;;;;;;;;5072996;28;20115;-74
2022/10/17 03:53:37;;;;;;;19.33;11.25;;;;;;;;;;5073051;28;20025;-74
2022/10/17 03:56:14;;;;;;;22.52;10.88;;;;;;;;;;5073069;28;20056;-74
2022/10/17 03:58:40;;;;;;;20.25;10.57;;;;;;;;;;5073144;28;20020;-75
2022/10/17 04:01:07;;;;;;;20.33;10.20;;;;;;;;;;5072526;28;20544;-75
2022/10/17 04:03:33;;;;;;;18.75;10.48;;;;;;;;;;5073057;28;20044;-75
2022/10/17 04:05:59;;;;;;;20.00;10.73;;;;;;;;;;5073255;28;20025;-74
2022/10/17 04:08:25;;;;;;;27.48;11.23;;;;;;;;;;5073125;28;20028;-75
2022/10/17 04:10:50;;;;;;;19.45;11.70;;;;;;;;;;5073301;28;20032;-75
2022/10/17 04:13:16;;;;;;;19.45;10.70;;;;;;;;;;5072891;28;20051;-75
2022/10/17 04:15:41;;;;;;;20.83;9.50;;;;;;;;;;5073054;28;20398;-75
2022/10/17 04:18:06;;;;;;;16.40;9.68;;;;;;;;;;5072900;28;20025;-74
2022/10/17 04:20:33;;;;;;;18.63;10.30;;;;;;;;;;5073137;28;20082;-75
2022/10/17 04:22:59;;;;;;;19.55;10.45;;;;;;;;;;5072722;28;20521;-74
2022/10/17 04:25:24;;;;;;;23.50;11.85;;;;;;;;;;5072843;28;20055;-76
2022/10/17 04:27:49;;;;;;;27.88;11.70;;;;;;;;;;5071594;28;20474;-76
2022/10/17 04:30:15;;;;;;;21.35;11.98;;;;;;;;;;5072742;28;20112;-75
2022/10/17 04:32:40;;;;;;;22.73;11.55;;;;;;;;;;5071406;28;20497;-75
2022/10/17 04:35:06;;;;;;;25.48;11.73;;;;;;;;;;5072766;28;20028;-75
2022/10/17 04:37:31;;;;;;;22.17;12.23;;;;;;;;;;5072712;28;20393;-75
2022/10/17 04:39:56;;;;;;;23.60;12.43;;;;;;;;;;5072911;28;20017;-75
2022/10/17 04:42:22;;;;;;;26.35;12.75;;;;;;;;;;5072526;28;20028;-73
2022/10/17 04:44:47;;;;;;;23.30;12.27;;;;;;;;;;5072621;28;20123;-75
2022/10/17 04:47:12;;;;;;;24.17;12.20;;;;;;;;;;5071332;28;20020;-75
2022/10/17 04:49:37;;;;;;;29.02;13.57;;;;;;;;;;5073105;28;20070;-76
2022/10/17 04:52:03;;;;;;;27.13;14.05;;;;;;;;;;5071008;28;20029;-75
2022/10/17 04:54:28;;;;;;;26.05;13.70;;;;;;;;;;5072705;28;20055;-75
2022/10/17 04:56:53;;;;;;;28.33;13.63;;;;;;;;;;5072465;28;20024;-75
2022/10/17 04:59:19;;;;;;;27.00;14.88;;;;;;;;;;5072464;28;20410;-75
2022/10/17 05:01:44;;;;;;;30.90;16.38;;;;;;;;;;5071134;28;20028;-75
2022/10/17 05:04:09;;;;;;;37.15;18.20;;;;;;;;;;5072786;28;20017;-75
2022/10/17 05:06:36;;;;;;;43.42;19.30;;;;;;;;;;5072527;28;20539;-74
2022/10/17 05:09:02;;;;;;;45.30;21.40;;;;;;;;;;5071302;28;20036;-75
2022/10/17 05:11:28;;;;;;;47.45;20.88;;;;;;;;;;5071587;28;20035;-75
2022/10/17 05:13:59;;;;;;;43.72;21.77;;;;;;;;;;5075894;28;20481;-74
2022/10/17 05:16:25;;;;;;;42.72;21.65;;;;;;;;;;5076208;28;20111;-75
2022/10/17 05:18:53;;;;;;;48.95;23.33;;;;;;;;;;5076077;28;20033;-74
2022/10/17 05:21:19;;;;;;;48.25;22.33;;;;;;;;;;5074798;28;20504;-75
2022/10/17 05:23:44;;;;;;;51.35;23.48;;;;;;;;;;5074718;28;20029;-74
2022/10/17 05:26:10;;;;;;;45.95;22.25;;;;;;;;;;5076090;28;20150;-74
2022/10/17 05:28:36;;;;;;;46.67;22.50;;;;;;;;;;5075829;28;20027;-75
2022/10/17 05:31:05;;;;;;;48.00;22.83;;;;;;;;;;5075658;28;20486;-74
2022/10/17 05:33:31;;;;;;;46.00;22.35;;;;;;;;;;5075905;28;20103;-74
2022/10/17 05:35:57;;;;;;;48.97;23.08;;;;;;;;;;5075614;28;20056;-74
2022/10/17 05:38:22;;;;;;;47.95;22.48;;;;;;;;;;5075645;28;20028;-74
2022/10/17 05:40:47;;;;;;;42.05;21.80;;;;;;;;;;5075560;28;20024;-73
2022/10/17 05:43:13;;;;;;;45.70;22.73;;;;;;;;;;5073972;28;20027;-74
2022/10/17 05:45:39;;;;;;;46.42;21.90;;;;;;;;;;5075613;28;20028;-75
2022/10/17 05:48:05;;;;;;;44.55;22.00;;;;;;;;;;5075461;28;20028;-75
2022/10/17 05:50:30;;;;;;;44.42;22.55;;;;;;;;;;5075258;28;20367;-75
2022/10/17 05:52:55;;;;;;;51.20;23.40;;;;;;;;;;5075270;28;20021;-74
2022/10/17 05:55:22;;;;;;;43.65;22.20;;;;;;;;;;5075235;28;20520;-73
2022/10/17 05:57:47;;;;;;;48.00;22.27;;;;;;;;;;5073890;28;20016;-75
2022/10/17 06:00:13;;;;;;;45.97;23.73;;;;;;;;;;5075115;28;20021;-74
2022/10/17 06:02:38;;;;;;;45.30;22.75;;;;;;;;;;5074999;28;20073;-75
2022/10/17 06:05:04;;;;;;;47.38;24.50;;;;;;;;;;5073768;28;20020;-75
2022/10/17 06:07:29;;;;;;;49.63;23.80;;;;;;;;;;5073645;28;20024;-75
2022/10/17 06:09:55;;;;;;;47.03;23.80;;;;;;;;;;5073626;28;20028;-75
2022/10/17 06:12:20;;;;;;;49.22;24.67;;;;;;;;;;5074675;28;20024;-75
2022/10/17 06:14:45;;;;;;;53.78;24.92;;;;;;;;;;5075134;28;20032;-75
2022/10/17 06:17:10;;;;;;;47.47;23.75;;;;;;;;;;5074800;28;20070;-78
2022/10/17 06:19:36;;;;;;;46.20;23.58;;;;;;;;;;5075010;28;20035;-75
2022/10/17 06:22:01;;;;;;;44.83;23.35;;;;;;;;;;5074418;28;20111;-76
2022/10/17 06:24:26;;;;;;;44.33;23.33;;;;;;;;;;5073341;28;20071;-75
2022/10/17 06:26:52;;;;;;;46.45;22.50;;;;;;;;;;5074942;28;20031;-75
2022/10/17 06:29:17;;;;;;;43.83;22.25;;;;;;;;;;5073255;28;20481;-76
2022/10/17 06:31:42;;;;;;;41.05;22.15;;;;;;;;;;5074999;28;20029;-75
2022/10/17 06:34:08;;;;;;;38.53;20.77;;;;;;;;;;5073136;28;20032;-75
2022/10/17 06:36:33;;;;;;;37.63;21.73;;;;;;;;;;5074689;28;20031;-76
2022/10/17 06:38:58;;;;;;;38.85;22.55;;;;;;;;;;5074570;28;20063;-75
2022/10/17 06:41:24;;;;;;;42.63;23.25;;;;;;;;;;5074248;28;20052;-75
2022/10/17 06:43:49;;;;;;;36.65;21.20;;;;;;;;;;5074303;28;20385;-76
2022/10/17 06:46:17;;;;;;;38.40;21.95;;;;;;;;;;5074219;28;20024;-77
2022/10/17 06:48:43;;;;;;;43.05;21.65;;;;;;;;;;5074092;28;20043;-76
2022/10/17 06:51:10;;;;;;;35.35;20.25;;;;;;;;;;5073953;28;20489;-76
2022/10/17 06:53:36;;;;;;;38.47;21.25;;;;;;;;;;5072764;28;20024;-76
2022/10/17 06:56:03;;;;;;;37.15;20.08;;;;;;;;;;5074077;28;20447;-76
2022/10/17 06:58:31;;;;;;;37.35;21.23;;;;;;;;;;5073972;28;20042;-76
2022/10/17 07:01:00;;;;;;;35.67;20.42;;;;;;;;;;5073890;28;20017;-76
2022/10/17 07:03:26;;;;;;;35.58;19.98;;;;;;;;;;5073733;28;20063;-76
2022/10/17 07:05:52;;;;;;;31.08;19.10;;;;;;;;;;5074221;28;20055;-76
2022/10/17 07:08:18;;;;;;;32.55;19.25;;;;;;;;;;5073820;28;20032;-76
2022/10/17 07:10:43;;;;;;;30.23;18.05;;;;;;;;;;5073820;28;20024;-76
2022/10/17 07:13:08;;;;;;;32.28;19.90;;;;;;;;;;5073669;28;20501;-75
2022/10/17 07:15:34;;;;;;;32.55;19.77;;;;;;;;;;5073591;28;20073;-75
2022/10/17 07:17:59;;;;;;;32.25;19.90;;;;;;;;;;5073765;28;20591;-75
2022/10/17 07:20:24;;;;;;;33.05;20.80;;;;;;;;;;5073560;28;20024;-76
2022/10/17 07:22:49;;;;;;;36.00;21.27;;;;;;;;;;5073428;28;20032;-76
2022/10/17 07:25:15;;;;;;;36.10;19.65;;;;;;;;;;5073443;28;20435;-76
2022/10/17 07:27:40;;;;;;;32.92;19.48;;;;;;;;;;5073570;28;20032;-76
2022/10/17 07:30:06;;;;;;;33.13;20.33;;;;;;;;;;5073435;28;20050;-76
2022/10/17 07:32:31;;;;;;;31.95;19.45;;;;;;;;;;5072115;28;20077;-76
2022/10/17 07:34:57;;;;;;;34.55;19.38;;;;;;;;;;5072686;28;20017;-75
2022/10/17 07:37:22;;;;;;;34.53;19.70;;;;;;;;;;5072099;28;20039;-77
2022/10/17 07:39:48;;;;;;;32.47;20.02;;;;;;;;;;5073378;28;20024;-74
2022/10/17 07:42:13;;;;;;;34.47;20.02;;;;;;;;;;5073217;28;20074;-76
2022/10/17 07:44:38;;;;;;;38.65;20.65;;;;;;;;;;5073416;28;20021;-76
2022/10/17 07:47:04;;;;;;;34.72;19.02;;;;;;;;;;5073867;28;20450;-75
2022/10/17 07:49:29;;;;;;;32.53;19.25;;;;;;;;;;5073430;28;20029;-75
2022/10/17 07:51:55;;;;;;;30.52;18.73;;;;;;;;;;5072869;28;20024;-75
2022/10/17 07:54:20;;;;;;;25.25;14.43;;;;;;;;;;5071535;28;20037;-76
2022/10/17 07:56:49;;;;;;;36.38;18.45;;;;;;;;;;5073110;28;20028;-77
2022/10/17 07:59:17;;;;;;;25.50;15.85;;;;;;;;;;5073060;28;20027;-75
2022/10/17 08:01:42;;;;;;;31.92;19.17;;;;;;;;;;5072976;28;20028;-76
2022/10/17 08:04:08;;;;;;;29.48;18.17;;;;;;;;;;5073284;28;20474;-75
2022/10/17 08:06:33;;;;;;;30.98;18.98;;;;;;;;;;5073326;28;20556;-75
2022/10/17 08:09:00;;;;;;;29.65;17.67;;;;;;;;;;5072964;28;20032;-75
2022/10/17 08:11:25;;;;;;;33.13;17.98;;;;;;;;;;5073182;28;20017;-75
2022/10/17 08:13:51;;;;;;;29.83;18.63;;;;;;;;;;5072966;28;20124;-75
2022/10/17 08:16:16;;;;;;;31.67;17.45;;;;;;;;;;5073017;28;20029;-76
2022/10/17 08:18:42;;;;;;;28.75;17.92;;;;;;;;;;5073610;28;20028;-77
2022/10/17 08:21:08;;;;;;;27.42;17.65;;;;;;;;;;5072915;28;20074;-76
2022/10/17 08:23:34;;;;;;;30.45;17.23;;;;;;;;;;5072948;28;20393;-76
2022/10/17 08:26:05;;;;;;;26.85;17.00;;;;;;;;;;5072835;28;20082;-76
2022/10/17 08:28:30;;;;;;;29.15;17.02;;;;;;;;;;5073038;28;20020;-76
2022/10/17 08:31:06;;;;;;;28.33;17.02;;;;;;;;;;5072811;28;20409;-76
2022/10/17 08:33:32;;;;;;;28.60;17.50;;;;;;;;;;5073097;28;20470;-76
2022/10/17 08:35:59;;;;;;;28.95;16.83;;;;;;;;;;5072837;28;20073;-77
2022/10/17 08:38:25;;;;;;;27.92;16.75;;;;;;;;;;5072678;28;20394;-75
2022/10/17 08:40:50;;;;;;;29.42;17.73;;;;;;;;;;5072051;28;20024;-75
2022/10/17 08:43:32;;;;;;;28.13;17.75;;;;;;;;;;5072943;28;20028;-75
2022/10/17 08:46:01;;;;;;;30.50;17.75;;;;;;;;;;5074136;28;20031;-77
2022/10/17 08:48:30;;;;;;;30.23;17.73;;;;;;;;;;5076812;28;20025;-75
2022/10/17 08:51:04;;;;;;;28.70;17.30;;;;;;;;;;5076285;28;20028;-75
2022/10/17 08:53:59;;;;;;;52.63;17.35;;;;;;;;;;5076572;28;20070;-75
2022/10/17 08:56:29;;;;;;;31.35;17.48;;;;;;;;;;5091150;28;20133;-75
2022/10/17 08:58:54;;;;;;;26.90;17.70;;;;;;;;;;5076517;28;20020;-75
2022/10/17 09:01:44;;;;;;;31.83;17.42;;;;;;;;;;5076306;28;20026;-76
2022/10/17 09:04:12;;;;;;;26.33;16.27;;;;;;;;;;5076247;28;20023;-76
2022/10/17 09:07:00;;;;;;;30.10;17.52;;;;;;;;;;5074892;28;20162;-76
2022/10/17 09:09:40;;;;;;;33.75;17.58;;;;;;;;;;5076149;28;20029;-77
2022/10/17 09:12:32;;;;;;;25.58;16.00;;;;;;;;;;5076184;28;20397;-76
2022/10/17 09:15:24;;;;;;;32.47;18.52;;;;;;;;;;5076447;28;20042;-75
2022/10/17 09:17:50;;;;;;;27.30;17.70;;;;;;;;;;5076608;28;20020;-74
2022/10/17 09:20:29;;;;;;;25.92;16.58;;;;;;;;;;5075888;28;20021;-75
2022/10/17 09:23:02;;;;;;;30.55;16.50;;;;;;;;;;5075910;28;20020;-76
2022/10/17 09:25:42;;;;;;;29.53;18.00;;;;;;;;;;5074606;28;20493;-75
2022/10/17 09:28:18;;;;;;;29.27;18.33;;;;;;;;;;5075856;28;20040;-75
2022/10/17 09:30:56;;;;;;;25.85;17.10;;;;;;;;;;5075643;28;20032;-76
2022/10/17 09:33:29;;;;;;;27.58;17.38;;;;;;;;;;5075865;28;20028;-77
2022/10/17 09:35:56;;;;;;;27.08;16.85;;;;;;;;;;5075958;28;20394;-75
2022/10/17 09:38:24;;;;;;;27.23;17.00;;;;;;;;;;5075594;28;20501;-75
2022/10/17 09:40:59;;;;;;;25.80;16.98;;;;;;;;;;5075833;28;20413;-74
2022/10/17 09:43:25;;;;;;;29.90;16.38;;;;;;;;;;5075361;28;20545;-75
2022/10/17 09:46:20;;;;;;;24.83;16.02;;;;;;;;;;5075555;28;20127;-75
2022/10/17 09:48:50;;;;;;;20.98;13.30;;;;;;;;;;5074075;28;20047;-77
2022/10/17 09:51:16;;;;;;;29.60;15.68;;;;;;;;;;5075293;28;20063;-75
2022/10/17 09:53:45;;;;;;;25.63;16.05;;;;;;;;;;5073978;28;20028;-77
2022/10/17 09:56:15;;;;;;;26.30;16.83;;;;;;;;;;5075597;28;20094;-76
2022/10/17 09:58:48;;;;;;;26.88;16.58;;;;;;;;;;5074703;28;20391;-76
2022/10/17 10:01:22;;;;;;;30.10;16.58;;;;;;;;;;5075234;28;20033;-75
2022/10/17 10:04:06;;;;;;;25.92;15.65;;;;;;;;;;5075152;28;20036;-75
2022/10/17 10:06:31;;;;;;;;;;;;;;;;;;5075772;28;20024;-76
2022/10/17 10:08:57;;;;;;;26.08;15.10;;;;;;;;;;5075251;28;19999;-76
2022/10/17 10:11:45;;;;;;;22.13;14.70;;;;;;;;;;5075243;28;20028;-76
2022/10/17 10:14:27;;;;;;;25.88;13.65;;;;;;;;;;5073739;28;20504;-76
2022/10/17 10:16:53;;;;;;;23.90;15.45;;;;;;;;;;5075045;28;20520;-75
2022/10/17 10:19:34;;;;;;;27.20;15.20;;;;;;;;;;5075517;28;20024;-76
2022/10/17 10:22:01;;;;;;;21.95;14.13;;;;;;;;;;5074832;28;20504;-76
2022/10/17 10:24:27;;;;;;;22.08;12.73;;;;;;;;;;5074846;28;20032;-76
2022/10/17 10:26:55;;;;;;;25.08;15.40;;;;;;;;;;5073510;28;20039;-75
2022/10/17 10:29:29;;;;;;;21.17;13.38;;;;;;;;;;5074729;28;20020;-76
2022/10/17 10:31:57;;;;;;;23.05;15.00;;;;;;;;;;5074938;28;20029;-75
2022/10/17 10:34:34;;;;;;;26.95;14.90;;;;;;;;;;5074684;28;20036;-75
2022/10/17 10:37:22;;;;;;;24.67;14.90;;;;;;;;;;5074972;28;20031;-77
2022/10/17 10:39:54;;;;;;;22.42;14.38;;;;;;;;;;5074961;28;20024;-74
2022/10/17 10:42:31;;;;;;;23.88;14.55;;;;;;;;;;5074660;28;20063;-77
2022/10/17 10:45:03;;;;;;;22.15;14.20;;;;;;;;;;5074583;28;20028;-75
2022/10/17 10:47:30;;;;;;;21.92;14.15;;;;;;;;;;5074825;28;20025;-76
2022/10/17 10:50:24;;;;;;;22.27;14.70;;;;;;;;;;5073228;28;20054;-75
2022/10/17 10:53:06;;;;;;;25.67;15.00;;;;;;;;;;5074539;28;20033;-75
2022/10/17 10:55:46;;;;;;;24.52;13.85;;;;;;;;;;5074570;28;20036;-76
2022/10/17 10:58:46;;;;;;;21.58;13.10;;;;;;;;;;5074518;28;20485;-76
2022/10/17 11:01:21;;;;;;;23.13;14.00;;;;;;;;;;5072909;28;20430;-75
2022/10/17 11:04:03;;;;;;;21.92;12.77;;;;;;;;;;5072827;28;20031;-76
2022/10/17 11:06:35;;;;;;;26.42;14.27;;;;;;;;;;5074280;28;20535;-76
2022/10/17 11:09:12;;;;;;;24.17;13.93;;;;;;;;;;5073236;28;20124;-76
2022/10/17 11:11:43;;;;;;;21.23;13.68;;;;;;;;;;5073960;28;20028;-76
2022/10/17 11:14:20;;;;;;;25.13;13.45;;;;;;;;;;5073769;28;20032;-77
2022/10/17 11:16:55;;;;;;;18.92;12.68;;;;;;;;;;5072476;28;20031;-75
2022/10/17 11:19:31;;;;;;;18.70;12.95;;;;;;;;;;5073606;28;20028;-76
2022/10/17 11:22:07;;;;;;;20.75;13.25;;;;;;;;;;5073794;28;20074;-74
2022/10/17 11:24:39;;;;;;;22.27;13.75;;;;;;;;;;5074160;28;20440;-75
2022/10/17 11:27:06;;;;;;;29.25;14.43;;;;;;;;;;5073473;28;20367;-74
2022/10/17 11:29:34;;;;;;;20.63;13.25;;;;;;;;;;5073432;28;20021;-76
2022/10/17 11:32:05;;;;;;;22.90;13.70;;;;;;;;;;5073435;28;20024;-75
2022/10/17 11:34:35;;;;;;;21.65;13.15;;;;;;;;;;5073638;28;20470;-75
2022/10/17 11:37:06;;;;;;;18.75;13.40;;;;;;;;;;5073623;28;20039;-76
2022/10/17 11:39:48;;;;;;;17.90;12.73;;;;;;;;;;5073439;28;20042;-76
2022/10/17 11:42:23;;;;;;;17.88;13.00;;;;;;;;;;5071920;28;20017;-76
2022/10/17 11:44:55;;;;;;;23.85;12.75;;;;;;;;;;5072056;28;20029;-76
2022/10/17 11:47:44;;;;;;;21.42;13.50;;;;;;;;;;5073329;28;20052;-75
2022/10/17 11:50:33;;;;;;;22.02;13.10;;;;;;;;;;5073250;28;20478;-74
2022/10/17 11:53:10;;;;;;;19.45;12.30;;;;;;;;;;5073075;28;20084;-76
2022/10/17 11:55:37;;;;;;;22.65;13.00;;;;;;;;;;5071904;28;20113;-75
2022/10/17 11:58:34;;;;;;;20.90;13.18;;;;;;;;;;5073344;28;20479;-76
2022/10/17 12:01:32;;;;;;;17.75;12.15;;;;;;;;;;5073319;28;20031;-74
2022/10/17 12:04:10;;;;;;;16.95;11.77;;;;;;;;;;5073017;28;20462;-75
2022/10/17 12:07:14;;;;;;;19.33;12.50;;;;;;;;;;5071646;28;20055;-75
2022/10/17 12:10:23;;;;;;;23.38;11.63;;;;;;;;;;5071683;28;20462;-76
2022/10/17 12:12:48;;;;;;;25.45;12.05;;;;;;;;;;5072796;28;20029;-75
2022/10/17 12:15:22;;;;;;;21.20;11.40;;;;;;;;;;5073254;28;20447;-75
2022/10/17 12:18:01;;;;;;;16.80;9.90;;;;;;;;;;5073224;28;20121;-75
2022/10/17 12:20:33;;;;;;;19.10;12.43;;;;;;;;;;5073732;28;20150;-74
2022/10/17 12:23:22;;;;;;;21.05;12.63;;;;;;;;;;5077128;28;20095;-76
2022/10/17 12:25:56;;;;;;;16.85;11.07;;;;;;;;;;5077181;28;20100;-76
2022/10/17 12:28:27;;;;;;;18.63;11.98;;;;;;;;;;5075909;28;20109;-75
2022/10/17 12:30:54;;;;;;;18.95;10.73;;;;;;;;;;5076951;28;20398;-75
2022/10/17 12:33:31;;;;;;;22.08;11.50;;;;;;;;;;5076811;28;20462;-75
2022/10/17 12:36:25;;;;;;;21.17;11.77;;;;;;;;;;5077462;28;20039;-75
2022/10/17 12:39:13;;;;;;;17.88;12.52;;;;;;;;;;5076810;28;20025;-76
2022/10/17 12:41:38;;;;;;;16.25;11.13;;;;;;;;;;5075225;28;20028;-75
2022/10/17 12:44:12;;;;;;;18.70;11.97;;;;;;;;;;5077212;28;20023;-75
2022/10/17 12:46:48;;;;;;;18.00;11.75;;;;;;;;;;5075373;28;20272;-76
2022/10/17 12:49:41;;;;;;;16.35;11.57;;;;;;;;;;5076833;28;20025;-76
2022/10/17 12:52:22;;;;;;;18.73;11.45;;;;;;;;;;5076360;28;20059;-74
2022/10/17 12:54:58;;;;;;;16.17;10.98;;;;;;;;;;5076583;28;20495;-76
2022/10/17 12:57:52;;;;;;;14.05;10.30;;;;;;;;;;5076378;28;20024;-76
2022/10/17 13:00:23;;;;;;;14.82;10.90;;;;;;;;;;5076538;28;20040;-74
2022/10/17 13:02:52;;;;;;;17.58;11.95;;;;;;;;;;5076314;28;20024;-75
2022/10/17 13:05:27;;;;;;;18.15;11.10;;;;;;;;;;5076494;28;20071;-75
2022/10/17 13:07:54;;;;;;;21.50;11.98;;;;;;;;;;5076684;28;20029;-75
2022/10/17 13:10:23;;;;;;;19.58;12.52;;;;;;;;;;5076339;28;20032;-75
2022/10/17 13:12:52;;;;;;;17.38;11.90;;;;;;;;;;5075978;28;20371;-75
2022/10/17 13:15:19;;;;;;;20.60;13.10;;;;;;;;;;5075989;28;20029;-74
2022/10/17 13:17:44;;;;;;;21.80;12.35;;;;;;;;;;5076245;28;20470;-75
2022/10/17 13:20:24;;;;;;;18.58;12.32;;;;;;;;;;5075813;28;20077;-75
2022/10/17 13:22:49;;;;;;;23.50;13.57;;;;;;;;;;5075960;28;20024;-75
2022/10/17 13:25:17;;;;;;;21.33;12.63;;;;;;;;;;5075772;28;20027;-75
2022/10/17 13:27:42;;;;;;;17.20;12.07;;;;;;;;;;5076007;28;20430;-75
2022/10/17 13:30:27;;;;;;;24.52;13.43;;;;;;;;;;5075583;28;20132;-74
2022/10/17 13:32:52;;;;;;;;;;;;;;;;;;5075190;28;20027;-75
2022/10/17 13:35:37;;;;;;;18.77;12.38;;;;;;;;;;5075612;28;19908;-76
2022/10/17 13:38:06;;;;;;;19.08;12.55;;;;;;;;;;5074346;28;20024;-74
2022/10/17 13:40:39;;;;;;;23.65;12.98;;;;;;;;;;5074352;28;20118;-75
2022/10/17 13:43:14;;;;;;;20.38;13.70;;;;;;;;;;5075452;28;20027;-75
2022/10/17 13:45:46;;;;;;;18.08;12.35;;;;;;;;;;5074127;28;20030;-75
2022/10/17 13:48:21;;;;;;;22.25;13.10;;;;;;;;;;5075389;28;20028;-75
2022/10/17 13:50:50;;;;;;;21.88;14.52;;;;;;;;;;5073925;28;20032;-75
2022/10/17 13:53:35;;;;;;;20.65;13.85;;;;;;;;;;5075350;28;20397;-75
2022/10/17 13:56:15;;;;;;;21.27;14.45;;;;;;;;;;5075480;28;20024;-76
2022/10/17 13:58:42;;;;;;;25.52;13.82;;;;;;;;;;5075143;28;20028;-75
2022/10/17 14:01:08;;;;;;;23.15;11.60;;;;;;;;;;5074779;28;20432;-75
2022/10/17 14:03:34;;;;;;;28.17;12.85;;;;;;;;;;5075241;28;20070;-76
2022/10/17 14:06:13;;;;;;;28.27;14.63;;;;;;;;;;5073749;28;20024;-76
2022/10/17 14:08:51;;;;;;;28.63;14.93;;;;;;;;;;5074936;28;20031;-75
2022/10/17 14:11:33;;;;;;;22.27;14.55;;;;;;;;;;5074890;28;20033;-74
2022/10/17 14:14:00;;;;;;;25.38;15.00;;;;;;;;;;5073573;28;20020;-75
2022/10/17 14:16:32;;;;;;;22.98;13.57;;;;;;;;;;5074853;28;20375;-76
2022/10/17 14:18:57;;;;;;;21.25;14.60;;;;;;;;;;5075091;28;20024;-75
2022/10/17 14:21:27;;;;;;;21.73;14.48;;;;;;;;;;5073341;28;20020;-75
2022/10/17 14:24:13;;;;;;;23.95;14.07;;;;;;;;;;5074667;28;20020;-76
2022/10/17 14:26:57;;;;;;;22.65;13.20;;;;;;;;;;5074918;28;20029;-75
2022/10/17 14:29:50;;;;;;;22.60;14.50;;;;;;;;;;5075086;28;20032;-75
2022/10/17 14:32:17;;;;;;;22.92;14.60;;;;;;;;;;5074628;28;20037;-76
2022/10/17 14:34:42;;;;;;;22.60;14.40;;;;;;;;;;5074481;28;20028;-75
2022/10/17 14:37:24;;;;;;;25.02;14.52;;;;;;;;;;5074724;28;20051;-75
2022/10/17 14:39:50;;;;;;;23.83;14.93;;;;;;;;;;5073094;28;20070;-75
2022/10/17 14:42:20;;;;;;;25.52;14.55;;;;;;;;;;5074308;28;20017;-75
2022/10/17 14:44:49;;;;;;;21.63;14.52;;;;;;;;;;5074016;28;20394;-75
2022/10/17 14:47:18;;;;;;;24.27;15.07;;;;;;;;;;5074149;28;20470;-75